Terminal Aerodrome Forecast
Issued by NWS

Home | Current Version | Previous Version | Text Only | Print | Product List | Glossary On
Versions: 1 2 3 4 5 6 7 8 9 10 11 12 13 14 15 16 17 18 19 20 21 22 23 24 25 26
545
FTAK31 PAFA 240539
TAFAOM
TAF
PAOM 240539Z 2406/2506 22011KT P6SM VCSH BKN014 OVC020
     FM241200 22010KT P6SM VCSH OVC010
     FM242200 21012KT P6SM VCSH OVC015=

USA.gov is the U.S. government's official web portal to all federal, state and local government web resources and services.